Terminal Aerodrome Forecast
Issued by NWS

Home | Current Version | Previous Version | Text Only | Print | Product List | Glossary On
Versions: 1 2 3 4 5 6 7 8 9 10 11 12 13 14 15 16 17 18 19 20 21 22 23 24 25 26 27 28 29 30 31 32 33 34 35 36 37
000
FTUS46 KOTX 262053 AAB
TAFSFF
TAF AMD
KSFF 262053Z 2621/2718 00000KT 2SM BR OVC005
     FM262200 00000KT 4SM BR OVC007
     FM270500 19003KT P6SM BKN012
     FM271600 00000KT 1SM -SN BR OVC012=

USA.gov is the U.S. government's official web portal to all federal, state and local government web resources and services.